sensor_id;sensor_type;location;lat;lon;timestamp;P1;durP1;ratioP1;P2;durP2;ratioP2
4057;SDS011;2044;48.692;9.020;2023-04-24T00:00:03;0.80;;;0.60;;
4057;SDS011;2044;48.692;9.020;2023-04-24T00:02:31;0.67;;;0.60;;
4057;SDS011;2044;48.692;9.020;2023-04-24T00:05:00;0.77;;;0.50;;
4057;SDS011;2044;48.692;9.020;2023-04-24T00:07:27;0.67;;;0.60;;
4057;SDS011;2044;48.692;9.020;2023-04-24T00:09:54;0.80;;;0.77;;
4057;SDS011;2044;48.692;9.020;2023-04-24T00:12:21;0.70;;;0.53;;
4057;SDS011;2044;48.692;9.020;2023-04-24T00:14:48;0.60;;;0.50;;
4057;SDS011;2044;48.692;9.020;2023-04-24T00:17:14;0.90;;;0.70;;
4057;SDS011;2044;48.692;9.020;2023-04-24T00:19:44;0.70;;;0.70;;
4057;SDS011;2044;48.692;9.020;2023-04-24T00:22:12;0.60;;;0.60;;
4057;SDS011;2044;48.692;9.020;2023-04-24T00:24:39;0.70;;;0.70;;
4057;SDS011;2044;48.692;9.020;2023-04-24T00:27:06;0.70;;;0.50;;
4057;SDS011;2044;48.692;9.020;2023-04-24T00:29:33;0.60;;;0.50;;
4057;SDS011;2044;48.692;9.020;2023-04-24T00:31:59;0.70;;;0.60;;
4057;SDS011;2044;48.692;9.020;2023-04-24T00:34:26;0.70;;;0.60;;
4057;SDS011;2044;48.692;9.020;2023-04-24T00:36:53;0.70;;;0.60;;
4057;SDS011;2044;48.692;9.020;2023-04-24T00:39:21;0.80;;;0.60;;
4057;SDS011;2044;48.692;9.020;2023-04-24T00:41:48;0.70;;;0.60;;
4057;SDS011;2044;48.692;9.020;2023-04-24T00:44:16;0.70;;;0.70;;
4057;SDS011;2044;48.692;9.020;2023-04-24T00:46:43;0.83;;;0.60;;
4057;SDS011;2044;48.692;9.020;2023-04-24T00:49:09;0.60;;;0.53;;
4057;SDS011;2044;48.692;9.020;2023-04-24T00:51:37;0.60;;;0.60;;
4057;SDS011;2044;48.692;9.020;2023-04-24T00:54:05;0.60;;;0.50;;
4057;SDS011;2044;48.692;9.020;2023-04-24T00:56:33;0.90;;;0.60;;
4057;SDS011;2044;48.692;9.020;2023-04-24T00:59:00;0.60;;;0.60;;
4057;SDS011;2044;48.692;9.020;2023-04-24T01:01:27;0.97;;;0.50;;
4057;SDS011;2044;48.692;9.020;2023-04-24T01:03:55;0.70;;;0.50;;
4057;SDS011;2044;48.692;9.020;2023-04-24T01:06:23;0.70;;;0.50;;
4057;SDS011;2044;48.692;9.020;2023-04-24T01:08:53;0.90;;;0.70;;
4057;SDS011;2044;48.692;9.020;2023-04-24T01:11:20;0.90;;;0.60;;
4057;SDS011;2044;48.692;9.020;2023-04-24T01:13:49;0.87;;;0.70;;
4057;SDS011;2044;48.692;9.020;2023-04-24T01:16:15;0.60;;;0.43;;
4057;SDS011;2044;48.692;9.020;2023-04-24T01:18:42;0.90;;;0.50;;
4057;SDS011;2044;48.692;9.020;2023-04-24T01:21:09;0.60;;;0.60;;
4057;SDS011;2044;48.692;9.020;2023-04-24T01:23:42;0.80;;;0.60;;
4057;SDS011;2044;48.692;9.020;2023-04-24T01:26:09;0.73;;;0.50;;
4057;SDS011;2044;48.692;9.020;2023-04-24T01:28:36;2.13;;;0.57;;
4057;SDS011;2044;48.692;9.020;2023-04-24T01:31:03;1.00;;;0.57;;
4057;SDS011;2044;48.692;9.020;2023-04-24T01:33:30;0.70;;;0.60;;
4057;SDS011;2044;48.692;9.020;2023-04-24T01:35:57;0.70;;;0.50;;
4057;SDS011;2044;48.692;9.020;2023-04-24T01:38:24;0.60;;;0.50;;
4057;SDS011;2044;48.692;9.020;2023-04-24T01:40:52;0.70;;;0.60;;
4057;SDS011;2044;48.692;9.020;2023-04-24T01:43:19;0.80;;;0.50;;
4057;SDS011;2044;48.692;9.020;2023-04-24T01:45:46;1.37;;;0.80;;
4057;SDS011;2044;48.692;9.020;2023-04-24T01:48:13;0.90;;;0.60;;
4057;SDS011;2044;48.692;9.020;2023-04-24T01:50:40;0.90;;;0.80;;
4057;SDS011;2044;48.692;9.020;2023-04-24T01:53:06;2.70;;;0.50;;
4057;SDS011;2044;48.692;9.020;2023-04-24T01:55:33;0.70;;;0.60;;
4057;SDS011;2044;48.692;9.020;2023-04-24T01:58:01;1.00;;;0.60;;
4057;SDS011;2044;48.692;9.020;2023-04-24T02:00:28;3.10;;;0.83;;
4057;SDS011;2044;48.692;9.020;2023-04-24T02:02:55;0.90;;;0.67;;
4057;SDS011;2044;48.692;9.020;2023-04-24T02:05:22;0.50;;;0.47;;
4057;SDS011;2044;48.692;9.020;2023-04-24T02:07:49;2.17;;;0.63;;
4057;SDS011;2044;48.692;9.020;2023-04-24T02:10:15;0.60;;;0.50;;
4057;SDS011;2044;48.692;9.020;2023-04-24T02:12:42;0.70;;;0.50;;
4057;SDS011;2044;48.692;9.020;2023-04-24T02:15:10;0.73;;;0.57;;
4057;SDS011;2044;48.692;9.020;2023-04-24T02:17:37;0.70;;;0.50;;
4057;SDS011;2044;48.692;9.020;2023-04-24T02:20:05;0.80;;;0.70;;
4057;SDS011;2044;48.692;9.020;2023-04-24T02:22:32;0.60;;;0.50;;
4057;SDS011;2044;48.692;9.020;2023-04-24T02:24:59;0.90;;;0.63;;
4057;SDS011;2044;48.692;9.020;2023-04-24T02:27:26;0.80;;;0.50;;
4057;SDS011;2044;48.692;9.020;2023-04-24T02:29:53;2.50;;;0.63;;
4057;SDS011;2044;48.692;9.020;2023-04-24T02:32:21;3.70;;;0.70;;
4057;SDS011;2044;48.692;9.020;2023-04-24T02:34:48;0.70;;;0.60;;
4057;SDS011;2044;48.692;9.020;2023-04-24T02:37:15;0.67;;;0.60;;
4057;SDS011;2044;48.692;9.020;2023-04-24T02:39:41;2.20;;;0.60;;
4057;SDS011;2044;48.692;9.020;2023-04-24T02:42:08;0.60;;;0.60;;
4057;SDS011;2044;48.692;9.020;2023-04-24T02:44:35;1.57;;;0.50;;
4057;SDS011;2044;48.692;9.020;2023-04-24T02:47:01;0.90;;;0.60;;
4057;SDS011;2044;48.692;9.020;2023-04-24T02:49:30;0.90;;;0.60;;
4057;SDS011;2044;48.692;9.020;2023-04-24T02:51:56;1.63;;;0.87;;
4057;SDS011;2044;48.692;9.020;2023-04-24T02:54:23;0.60;;;0.47;;
4057;SDS011;2044;48.692;9.020;2023-04-24T02:56:50;0.60;;;0.60;;
4057;SDS011;2044;48.692;9.020;2023-04-24T02:59:16;2.63;;;0.60;;
4057;SDS011;2044;48.692;9.020;2023-04-24T03:01:43;0.90;;;0.50;;
4057;SDS011;2044;48.692;9.020;2023-04-24T03:04:09;0.67;;;0.50;;
4057;SDS011;2044;48.692;9.020;2023-04-24T03:06:37;0.70;;;0.60;;
4057;SDS011;2044;48.692;9.020;2023-04-24T03:09:04;0.60;;;0.50;;
4057;SDS011;2044;48.692;9.020;2023-04-24T03:11:31;0.93;;;0.60;;
4057;SDS011;2044;48.692;9.020;2023-04-24T03:13:58;0.60;;;0.50;;
4057;SDS011;2044;48.692;9.020;2023-04-24T03:16:25;0.70;;;0.60;;
4057;SDS011;2044;48.692;9.020;2023-04-24T03:18:51;0.60;;;0.50;;
4057;SDS011;2044;48.692;9.020;2023-04-24T03:21:18;2.40;;;0.60;;
4057;SDS011;2044;48.692;9.020;2023-04-24T03:23:46;0.80;;;0.53;;
4057;SDS011;2044;48.692;9.020;2023-04-24T03:26:13;0.90;;;0.67;;
4057;SDS011;2044;48.692;9.020;2023-04-24T03:28:40;2.50;;;0.67;;
4057;SDS011;2044;48.692;9.020;2023-04-24T03:31:06;0.60;;;0.60;;
4057;SDS011;2044;48.692;9.020;2023-04-24T03:33:33;0.80;;;0.60;;
4057;SDS011;2044;48.692;9.020;2023-04-24T03:36:01;0.87;;;0.60;;
4057;SDS011;2044;48.692;9.020;2023-04-24T03:38:27;1.10;;;0.70;;
4057;SDS011;2044;48.692;9.020;2023-04-24T03:40:56;0.73;;;0.60;;
4057;SDS011;2044;48.692;9.020;2023-04-24T03:43:22;0.60;;;0.50;;
4057;SDS011;2044;48.692;9.020;2023-04-24T03:45:49;1.67;;;1.17;;
4057;SDS011;2044;48.692;9.020;2023-04-24T03:48:16;1.73;;;0.60;;
4057;SDS011;2044;48.692;9.020;2023-04-24T03:50:42;2.57;;;0.60;;
4057;SDS011;2044;48.692;9.020;2023-04-24T03:53:09;1.53;;;0.53;;
4057;SDS011;2044;48.692;9.020;2023-04-24T03:55:36;0.90;;;0.70;;
4057;SDS011;2044;48.692;9.020;2023-04-24T03:58:04;0.80;;;0.60;;
4057;SDS011;2044;48.692;9.020;2023-04-24T04:00:30;0.70;;;0.67;;
4057;SDS011;2044;48.692;9.020;2023-04-24T04:02:58;1.00;;;0.90;;
4057;SDS011;2044;48.692;9.020;2023-04-24T04:05:24;0.90;;;0.77;;
4057;SDS011;2044;48.692;9.020;2023-04-24T04:07:51;1.33;;;0.60;;
4057;SDS011;2044;48.692;9.020;2023-04-24T04:10:18;0.70;;;0.60;;
4057;SDS011;2044;48.692;9.020;2023-04-24T04:12:45;0.77;;;0.70;;
4057;SDS011;2044;48.692;9.020;2023-04-24T04:15:13;1.37;;;0.80;;
4057;SDS011;2044;48.692;9.020;2023-04-24T04:17:40;0.77;;;0.53;;
4057;SDS011;2044;48.692;9.020;2023-04-24T04:20:07;0.80;;;0.50;;
4057;SDS011;2044;48.692;9.020;2023-04-24T04:22:35;1.47;;;0.53;;
4057;SDS011;2044;48.692;9.020;2023-04-24T04:25:01;3.33;;;0.90;;
4057;SDS011;2044;48.692;9.020;2023-04-24T04:27:29;0.80;;;0.57;;
4057;SDS011;2044;48.692;9.020;2023-04-24T04:29:57;1.30;;;0.90;;
4057;SDS011;2044;48.692;9.020;2023-04-24T04:32:25;0.87;;;0.70;;
4057;SDS011;2044;48.692;9.020;2023-04-24T04:34:52;0.70;;;0.70;;
4057;SDS011;2044;48.692;9.020;2023-04-24T04:37:19;1.03;;;0.60;;
4057;SDS011;2044;48.692;9.020;2023-04-24T04:39:45;1.03;;;0.70;;
4057;SDS011;2044;48.692;9.020;2023-04-24T04:42:12;0.77;;;0.70;;
4057;SDS011;2044;48.692;9.020;2023-04-24T04:44:40;0.90;;;0.63;;
4057;SDS011;2044;48.692;9.020;2023-04-24T04:47:07;1.07;;;0.60;;
4057;SDS011;2044;48.692;9.020;2023-04-24T04:49:37;1.73;;;0.70;;
4057;SDS011;2044;48.692;9.020;2023-04-24T04:52:03;1.00;;;0.70;;
4057;SDS011;2044;48.692;9.020;2023-04-24T04:54:31;3.00;;;0.93;;
4057;SDS011;2044;48.692;9.020;2023-04-24T04:56:57;1.17;;;0.77;;
4057;SDS011;2044;48.692;9.020;2023-04-24T04:59:25;2.17;;;1.00;;
4057;SDS011;2044;48.692;9.020;2023-04-24T05:01:52;1.00;;;0.70;;
4057;SDS011;2044;48.692;9.020;2023-04-24T05:04:18;1.83;;;0.80;;
4057;SDS011;2044;48.692;9.020;2023-04-24T05:06:46;1.40;;;0.80;;
4057;SDS011;2044;48.692;9.020;2023-04-24T05:09:13;2.10;;;1.30;;
4057;SDS011;2044;48.692;9.020;2023-04-24T05:11:40;0.80;;;0.60;;
4057;SDS011;2044;48.692;9.020;2023-04-24T05:14:06;0.87;;;0.80;;
4057;SDS011;2044;48.692;9.020;2023-04-24T05:16:33;1.37;;;0.83;;
4057;SDS011;2044;48.692;9.020;2023-04-24T05:19:01;1.10;;;1.00;;
4057;SDS011;2044;48.692;9.020;2023-04-24T05:21:28;1.20;;;0.73;;
4057;SDS011;2044;48.692;9.020;2023-04-24T05:23:57;1.30;;;0.90;;
4057;SDS011;2044;48.692;9.020;2023-04-24T05:26:23;1.03;;;0.90;;
4057;SDS011;2044;48.692;9.020;2023-04-24T05:28:50;1.73;;;1.63;;
4057;SDS011;2044;48.692;9.020;2023-04-24T05:31:17;0.80;;;0.50;;
4057;SDS011;2044;48.692;9.020;2023-04-24T05:33:43;1.33;;;0.97;;
4057;SDS011;2044;48.692;9.020;2023-04-24T05:36:10;1.53;;;0.90;;
4057;SDS011;2044;48.692;9.020;2023-04-24T05:38:37;2.13;;;1.60;;
4057;SDS011;2044;48.692;9.020;2023-04-24T05:41:05;2.57;;;1.63;;
4057;SDS011;2044;48.692;9.020;2023-04-24T05:43:32;1.10;;;0.93;;
4057;SDS011;2044;48.692;9.020;2023-04-24T05:45:59;2.40;;;1.10;;
4057;SDS011;2044;48.692;9.020;2023-04-24T05:48:25;1.90;;;1.30;;
4057;SDS011;2044;48.692;9.020;2023-04-24T05:50:52;1.23;;;1.00;;
4057;SDS011;2044;48.692;9.020;2023-04-24T05:53:19;2.40;;;1.60;;
4057;SDS011;2044;48.692;9.020;2023-04-24T05:55:46;3.10;;;1.40;;
4057;SDS011;2044;48.692;9.020;2023-04-24T05:58:14;1.37;;;1.10;;
4057;SDS011;2044;48.692;9.020;2023-04-24T06:00:41;1.97;;;0.93;;
4057;SDS011;2044;48.692;9.020;2023-04-24T06:03:11;1.63;;;1.10;;
4057;SDS011;2044;48.692;9.020;2023-04-24T06:05:37;5.07;;;2.07;;
4057;SDS011;2044;48.692;9.020;2023-04-24T06:08:04;2.30;;;1.27;;
4057;SDS011;2044;48.692;9.020;2023-04-24T06:10:31;2.30;;;1.20;;
4057;SDS011;2044;48.692;9.020;2023-04-24T06:12:58;3.50;;;2.10;;
4057;SDS011;2044;48.692;9.020;2023-04-24T06:15:28;2.60;;;1.80;;
4057;SDS011;2044;48.692;9.020;2023-04-24T06:17:56;2.60;;;1.80;;
4057;SDS011;2044;48.692;9.020;2023-04-24T06:20:23;1.77;;;1.67;;
4057;SDS011;2044;48.692;9.020;2023-04-24T06:22:50;2.97;;;2.10;;
4057;SDS011;2044;48.692;9.020;2023-04-24T06:25:16;1.90;;;1.60;;
4057;SDS011;2044;48.692;9.020;2023-04-24T06:27:44;2.40;;;1.90;;
4057;SDS011;2044;48.692;9.020;2023-04-24T06:30:10;2.30;;;2.07;;
4057;SDS011;2044;48.692;9.020;2023-04-24T06:32:39;2.57;;;2.13;;
4057;SDS011;2044;48.692;9.020;2023-04-24T06:35:06;2.17;;;1.87;;
4057;SDS011;2044;48.692;9.020;2023-04-24T06:37:34;2.33;;;1.40;;
4057;SDS011;2044;48.692;9.020;2023-04-24T06:40:01;2.13;;;1.67;;
4057;SDS011;2044;48.692;9.020;2023-04-24T06:42:28;2.03;;;1.60;;
4057;SDS011;2044;48.692;9.020;2023-04-24T06:44:55;1.90;;;1.80;;
4057;SDS011;2044;48.692;9.020;2023-04-24T06:47:21;3.13;;;2.17;;
4057;SDS011;2044;48.692;9.020;2023-04-24T06:49:49;2.97;;;2.40;;
4057;SDS011;2044;48.692;9.020;2023-04-24T06:52:17;2.43;;;2.33;;
4057;SDS011;2044;48.692;9.020;2023-04-24T06:54:44;3.10;;;2.10;;
4057;SDS011;2044;48.692;9.020;2023-04-24T06:57:10;2.00;;;1.90;;
4057;SDS011;2044;48.692;9.020;2023-04-24T06:59:37;2.10;;;2.00;;
4057;SDS011;2044;48.692;9.020;2023-04-24T07:02:04;1.80;;;1.70;;
4057;SDS011;2044;48.692;9.020;2023-04-24T07:04:31;1.67;;;1.57;;
4057;SDS011;2044;48.692;9.020;2023-04-24T07:06:59;2.13;;;1.50;;
4057;SDS011;2044;48.692;9.020;2023-04-24T07:09:26;9.13;;;1.30;;
4057;SDS011;2044;48.692;9.020;2023-04-24T07:11:53;1.03;;;0.80;;
4057;SDS011;2044;48.692;9.020;2023-04-24T07:14:21;1.63;;;0.90;;
4057;SDS011;2044;48.692;9.020;2023-04-24T07:16:48;2.23;;;0.83;;
4057;SDS011;2044;48.692;9.020;2023-04-24T07:19:15;0.97;;;0.60;;
4057;SDS011;2044;48.692;9.020;2023-04-24T07:21:41;1.03;;;0.90;;
4057;SDS011;2044;48.692;9.020;2023-04-24T07:24:09;1.10;;;1.00;;
4057;SDS011;2044;48.692;9.020;2023-04-24T07:26:38;1.43;;;1.17;;
4057;SDS011;2044;48.692;9.020;2023-04-24T07:29:05;1.13;;;1.03;;
4057;SDS011;2044;48.692;9.020;2023-04-24T07:31:32;1.03;;;0.93;;
4057;SDS011;2044;48.692;9.020;2023-04-24T07:33:58;2.30;;;2.20;;
4057;SDS011;2044;48.692;9.020;2023-04-24T07:36:25;2.30;;;2.20;;
4057;SDS011;2044;48.692;9.020;2023-04-24T07:38:53;3.80;;;3.70;;
4057;SDS011;2044;48.692;9.020;2023-04-24T07:41:21;5.10;;;4.90;;
4057;SDS011;2044;48.692;9.020;2023-04-24T07:43:49;6.00;;;4.80;;
4057;SDS011;2044;48.692;9.020;2023-04-24T07:46:15;5.10;;;4.90;;
4057;SDS011;2044;48.692;9.020;2023-04-24T07:48:42;4.63;;;4.53;;
4057;SDS011;2044;48.692;9.020;2023-04-24T07:51:09;4.93;;;4.60;;
4057;SDS011;2044;48.692;9.020;2023-04-24T07:53:38;4.10;;;4.00;;
4057;SDS011;2044;48.692;9.020;2023-04-24T07:56:05;3.50;;;3.40;;
4057;SDS011;2044;48.692;9.020;2023-04-24T07:58:33;3.30;;;3.10;;
4057;SDS011;2044;48.692;9.020;2023-04-24T08:01:00;3.80;;;3.60;;
4057;SDS011;2044;48.692;9.020;2023-04-24T08:03:26;3.97;;;3.87;;
4057;SDS011;2044;48.692;9.020;2023-04-24T08:05:53;3.63;;;3.43;;
4057;SDS011;2044;48.692;9.020;2023-04-24T08:08:20;2.93;;;2.83;;
4057;SDS011;2044;48.692;9.020;2023-04-24T08:10:48;2.80;;;2.70;;
4057;SDS011;2044;48.692;9.020;2023-04-24T08:13:15;3.30;;;3.10;;
4057;SDS011;2044;48.692;9.020;2023-04-24T08:15:43;3.27;;;2.50;;
4057;SDS011;2044;48.692;9.020;2023-04-24T08:18:10;3.17;;;3.07;;
4057;SDS011;2044;48.692;9.020;2023-04-24T08:20:38;3.67;;;3.57;;
4057;SDS011;2044;48.692;9.020;2023-04-24T08:23:05;4.70;;;4.50;;
4057;SDS011;2044;48.692;9.020;2023-04-24T08:25:31;4.80;;;4.50;;
4057;SDS011;2044;48.692;9.020;2023-04-24T08:28:00;4.90;;;4.70;;
4057;SDS011;2044;48.692;9.020;2023-04-24T08:30:28;4.43;;;4.33;;
4057;SDS011;2044;48.692;9.020;2023-04-24T08:32:56;4.83;;;4.73;;
4057;SDS011;2044;48.692;9.020;2023-04-24T08:35:23;5.90;;;5.70;;
4057;SDS011;2044;48.692;9.020;2023-04-24T08:37:50;5.40;;;5.20;;
4057;SDS011;2044;48.692;9.020;2023-04-24T08:40:18;5.40;;;5.20;;
4057;SDS011;2044;48.692;9.020;2023-04-24T08:42:53;5.70;;;5.50;;
4057;SDS011;2044;48.692;9.020;2023-04-24T08:45:21;4.90;;;4.73;;
4057;SDS011;2044;48.692;9.020;2023-04-24T08:47:49;4.90;;;4.77;;
4057;SDS011;2044;48.692;9.020;2023-04-24T08:50:17;4.43;;;4.33;;
4057;SDS011;2044;48.692;9.020;2023-04-24T08:52:44;4.40;;;4.30;;
4057;SDS011;2044;48.692;9.020;2023-04-24T08:55:10;4.20;;;4.10;;
4057;SDS011;2044;48.692;9.020;2023-04-24T08:57:37;4.60;;;4.30;;
4057;SDS011;2044;48.692;9.020;2023-04-24T09:00:05;4.70;;;4.37;;
4057;SDS011;2044;48.692;9.020;2023-04-24T09:02:33;5.03;;;4.83;;
4057;SDS011;2044;48.692;9.020;2023-04-24T09:05:00;4.40;;;4.20;;
4057;SDS011;2044;48.692;9.020;2023-04-24T09:07:30;4.80;;;4.60;;
4057;SDS011;2044;48.692;9.020;2023-04-24T09:10:01;5.33;;;5.13;;
4057;SDS011;2044;48.692;9.020;2023-04-24T09:12:29;4.87;;;4.77;;
4057;SDS011;2044;48.692;9.020;2023-04-24T09:14:56;4.80;;;4.70;;
4057;SDS011;2044;48.692;9.020;2023-04-24T09:17:23;6.10;;;5.90;;
4057;SDS011;2044;48.692;9.020;2023-04-24T09:19:53;5.90;;;5.70;;
4057;SDS011;2044;48.692;9.020;2023-04-24T09:22:20;5.93;;;5.73;;
4057;SDS011;2044;48.692;9.020;2023-04-24T09:24:49;6.27;;;6.10;;
4057;SDS011;2044;48.692;9.020;2023-04-24T09:27:28;7.63;;;7.43;;
4057;SDS011;2044;48.692;9.020;2023-04-24T09:29:54;7.27;;;6.97;;
4057;SDS011;2044;48.692;9.020;2023-04-24T09:32:22;7.10;;;6.80;;
4057;SDS011;2044;48.692;9.020;2023-04-24T09:35:04;7.33;;;7.03;;
4057;SDS011;2044;48.692;9.020;2023-04-24T09:37:34;7.77;;;7.47;;
4057;SDS011;2044;48.692;9.020;2023-04-24T09:40:10;7.03;;;6.83;;
4057;SDS011;2044;48.692;9.020;2023-04-24T09:42:38;7.30;;;7.10;;
4057;SDS011;2044;48.692;9.020;2023-04-24T09:45:08;7.60;;;7.40;;
4057;SDS011;2044;48.692;9.020;2023-04-24T09:47:36;8.20;;;8.00;;
4057;SDS011;2044;48.692;9.020;2023-04-24T09:50:08;7.80;;;7.60;;
4057;SDS011;2044;48.692;9.020;2023-04-24T09:52:39;7.40;;;7.20;;
4057;SDS011;2044;48.692;9.020;2023-04-24T09:55:11;7.80;;;7.60;;
4057;SDS011;2044;48.692;9.020;2023-04-24T09:57:49;7.80;;;7.40;;
4057;SDS011;2044;48.692;9.020;2023-04-24T10:00:23;7.23;;;7.03;;
4057;SDS011;2044;48.692;9.020;2023-04-24T10:02:55;7.30;;;6.90;;
4057;SDS011;2044;48.692;9.020;2023-04-24T10:05:23;7.47;;;7.27;;
4057;SDS011;2044;48.692;9.020;2023-04-24T10:07:50;7.70;;;7.50;;
4057;SDS011;2044;48.692;9.020;2023-04-24T10:10:19;7.77;;;7.47;;
4057;SDS011;2044;48.692;9.020;2023-04-24T10:12:45;8.13;;;7.87;;
4057;SDS011;2044;48.692;9.020;2023-04-24T10:15:13;8.60;;;8.30;;
4057;SDS011;2044;48.692;9.020;2023-04-24T10:17:45;8.40;;;8.10;;
4057;SDS011;2044;48.692;9.020;2023-04-24T10:20:17;8.93;;;8.63;;
4057;SDS011;2044;48.692;9.020;2023-04-24T10:22:45;8.23;;;7.73;;
4057;SDS011;2044;48.692;9.020;2023-04-24T10:25:16;7.63;;;7.43;;
4057;SDS011;2044;48.692;9.020;2023-04-24T10:27:46;8.50;;;8.30;;
4057;SDS011;2044;48.692;9.020;2023-04-24T10:30:14;7.90;;;7.70;;
4057;SDS011;2044;48.692;9.020;2023-04-24T10:32:41;8.30;;;7.97;;
4057;SDS011;2044;48.692;9.020;2023-04-24T10:35:08;7.60;;;7.40;;
4057;SDS011;2044;48.692;9.020;2023-04-24T10:37:37;7.83;;;7.63;;
4057;SDS011;2044;48.692;9.020;2023-04-24T10:40:06;7.53;;;7.33;;
4057;SDS011;2044;48.692;9.020;2023-04-24T10:42:36;7.97;;;7.67;;
4057;SDS011;2044;48.692;9.020;2023-04-24T10:45:06;7.23;;;7.03;;
4057;SDS011;2044;48.692;9.020;2023-04-24T10:47:42;7.97;;;7.70;;
4057;SDS011;2044;48.692;9.020;2023-04-24T10:50:09;7.57;;;7.37;;
4057;SDS011;2044;48.692;9.020;2023-04-24T10:52:45;7.47;;;7.27;;
4057;SDS011;2044;48.692;9.020;2023-04-24T10:55:13;7.97;;;7.67;;
4057;SDS011;2044;48.692;9.020;2023-04-24T10:57:43;7.17;;;6.97;;
4057;SDS011;2044;48.692;9.020;2023-04-24T11:00:27;7.43;;;7.20;;
4057;SDS011;2044;48.692;9.020;2023-04-24T11:02:54;7.60;;;7.40;;
4057;SDS011;2044;48.692;9.020;2023-04-24T11:05:22;7.50;;;7.10;;
4057;SDS011;2044;48.692;9.020;2023-04-24T11:08:12;7.73;;;7.53;;
4057;SDS011;2044;48.692;9.020;2023-04-24T11:10:43;7.80;;;7.47;;
4057;SDS011;2044;48.692;9.020;2023-04-24T11:13:12;7.50;;;7.20;;
4057;SDS011;2044;48.692;9.020;2023-04-24T11:15:41;7.60;;;7.40;;
4057;SDS011;2044;48.692;9.020;2023-04-24T11:18:12;7.80;;;7.50;;
4057;SDS011;2044;48.692;9.020;2023-04-24T11:20:41;7.00;;;6.80;;
4057;SDS011;2044;48.692;9.020;2023-04-24T11:23:08;7.83;;;7.53;;
4057;SDS011;2044;48.692;9.020;2023-04-24T11:25:38;7.13;;;6.93;;
4057;SDS011;2044;48.692;9.020;2023-04-24T11:28:05;7.17;;;6.97;;
4057;SDS011;2044;48.692;9.020;2023-04-24T11:30:34;7.20;;;7.00;;
4057;SDS011;2044;48.692;9.020;2023-04-24T11:33:04;6.10;;;6.00;;
4057;SDS011;2044;48.692;9.020;2023-04-24T11:35:34;6.40;;;6.20;;
4057;SDS011;2044;48.692;9.020;2023-04-24T11:38:04;6.90;;;6.70;;
4057;SDS011;2044;48.692;9.020;2023-04-24T11:40:33;6.53;;;6.33;;
4057;SDS011;2044;48.692;9.020;2023-04-24T11:43:00;6.10;;;6.00;;
4057;SDS011;2044;48.692;9.020;2023-04-24T11:45:27;6.70;;;6.50;;
4057;SDS011;2044;48.692;9.020;2023-04-24T11:47:56;7.63;;;7.23;;
4057;SDS011;2044;48.692;9.020;2023-04-24T11:50:24;6.63;;;6.33;;
4057;SDS011;2044;48.692;9.020;2023-04-24T11:52:52;6.67;;;6.47;;
4057;SDS011;2044;48.692;9.020;2023-04-24T11:55:24;7.20;;;6.70;;
4057;SDS011;2044;48.692;9.020;2023-04-24T11:57:53;7.00;;;6.80;;
4057;SDS011;2044;48.692;9.020;2023-04-24T12:00:23;7.03;;;6.83;;
4057;SDS011;2044;48.692;9.020;2023-04-24T12:02:51;7.03;;;6.73;;
4057;SDS011;2044;48.692;9.020;2023-04-24T12:05:22;7.07;;;6.77;;
4057;SDS011;2044;48.692;9.020;2023-04-24T12:07:50;6.37;;;6.17;;
4057;SDS011;2044;48.692;9.020;2023-04-24T12:10:19;6.80;;;6.50;;
4057;SDS011;2044;48.692;9.020;2023-04-24T12:12:46;6.93;;;6.63;;
4057;SDS011;2044;48.692;9.020;2023-04-24T12:15:15;7.00;;;6.70;;
4057;SDS011;2044;48.692;9.020;2023-04-24T12:17:43;6.70;;;6.50;;
4057;SDS011;2044;48.692;9.020;2023-04-24T12:20:11;7.13;;;6.93;;
4057;SDS011;2044;48.692;9.020;2023-04-24T12:22:47;7.20;;;6.90;;
4057;SDS011;2044;48.692;9.020;2023-04-24T12:25:15;7.60;;;7.30;;
4057;SDS011;2044;48.692;9.020;2023-04-24T12:27:43;7.23;;;7.03;;
4057;SDS011;2044;48.692;9.020;2023-04-24T12:30:11;7.10;;;6.80;;
4057;SDS011;2044;48.692;9.020;2023-04-24T12:32:43;6.87;;;6.60;;
4057;SDS011;2044;48.692;9.020;2023-04-24T12:35:10;6.47;;;6.27;;
4057;SDS011;2044;48.692;9.020;2023-04-24T12:37:37;5.40;;;5.30;;
4057;SDS011;2044;48.692;9.020;2023-04-24T12:40:09;5.83;;;5.63;;
4057;SDS011;2044;48.692;9.020;2023-04-24T12:42:41;5.97;;;5.77;;
4057;SDS011;2044;48.692;9.020;2023-04-24T12:45:09;5.10;;;4.90;;
4057;SDS011;2044;48.692;9.020;2023-04-24T12:47:37;4.90;;;4.80;;
4057;SDS011;2044;48.692;9.020;2023-04-24T12:50:05;5.07;;;4.97;;
4057;SDS011;2044;48.692;9.020;2023-04-24T12:52:32;4.80;;;4.70;;
4057;SDS011;2044;48.692;9.020;2023-04-24T12:54:59;4.67;;;4.57;;
4057;SDS011;2044;48.692;9.020;2023-04-24T12:57:28;4.77;;;4.60;;
4057;SDS011;2044;48.692;9.020;2023-04-24T12:59:56;3.93;;;3.83;;
4057;SDS011;2044;48.692;9.020;2023-04-24T13:02:23;3.37;;;3.13;;
4057;SDS011;2044;48.692;9.020;2023-04-24T13:04:51;3.57;;;3.43;;
4057;SDS011;2044;48.692;9.020;2023-04-24T13:07:19;4.20;;;4.10;;
4057;SDS011;2044;48.692;9.020;2023-04-24T13:09:47;4.60;;;4.50;;
4057;SDS011;2044;48.692;9.020;2023-04-24T13:12:14;5.47;;;5.27;;
4057;SDS011;2044;48.692;9.020;2023-04-24T13:14:42;5.20;;;5.00;;
4057;SDS011;2044;48.692;9.020;2023-04-24T13:17:09;5.60;;;5.40;;
4057;SDS011;2044;48.692;9.020;2023-04-24T13:19:38;5.20;;;5.10;;
4057;SDS011;2044;48.692;9.020;2023-04-24T13:22:06;5.30;;;5.10;;
4057;SDS011;2044;48.692;9.020;2023-04-24T13:24:33;5.93;;;5.73;;
4057;SDS011;2044;48.692;9.020;2023-04-24T13:27:00;5.27;;;5.07;;
4057;SDS011;2044;48.692;9.020;2023-04-24T13:29:27;4.13;;;4.03;;
4057;SDS011;2044;48.692;9.020;2023-04-24T13:31:55;3.17;;;3.07;;
4057;SDS011;2044;48.692;9.020;2023-04-24T13:34:22;4.20;;;3.03;;
4057;SDS011;2044;48.692;9.020;2023-04-24T13:36:49;3.50;;;3.30;;
4057;SDS011;2044;48.692;9.020;2023-04-24T13:39:16;3.03;;;2.93;;
4057;SDS011;2044;48.692;9.020;2023-04-24T13:41:43;2.57;;;2.47;;
4057;SDS011;2044;48.692;9.020;2023-04-24T13:44:10;2.90;;;2.70;;
4057;SDS011;2044;48.692;9.020;2023-04-24T13:46:36;3.00;;;2.90;;
4057;SDS011;2044;48.692;9.020;2023-04-24T13:49:04;4.37;;;4.13;;
4057;SDS011;2044;48.692;9.020;2023-04-24T13:51:32;4.97;;;4.80;;
4057;SDS011;2044;48.692;9.020;2023-04-24T13:53:59;5.30;;;5.13;;
4057;SDS011;2044;48.692;9.020;2023-04-24T13:56:25;4.80;;;4.70;;
4057;SDS011;2044;48.692;9.020;2023-04-24T13:58:52;5.50;;;5.00;;
4057;SDS011;2044;48.692;9.020;2023-04-24T14:01:19;5.23;;;5.00;;
4057;SDS011;2044;48.692;9.020;2023-04-24T14:03:49;5.03;;;4.80;;
4057;SDS011;2044;48.692;9.020;2023-04-24T14:06:17;5.40;;;5.10;;
4057;SDS011;2044;48.692;9.020;2023-04-24T14:08:44;5.10;;;4.80;;
4057;SDS011;2044;48.692;9.020;2023-04-24T14:11:11;3.30;;;3.17;;
4057;SDS011;2044;48.692;9.020;2023-04-24T14:13:38;2.10;;;1.90;;
4057;SDS011;2044;48.692;9.020;2023-04-24T14:16:06;2.13;;;1.20;;
4057;SDS011;2044;48.692;9.020;2023-04-24T14:18:33;2.60;;;1.40;;
4057;SDS011;2044;48.692;9.020;2023-04-24T14:21:01;3.43;;;1.27;;
4057;SDS011;2044;48.692;9.020;2023-04-24T14:23:29;1.87;;;1.40;;
4057;SDS011;2044;48.692;9.020;2023-04-24T14:25:56;2.03;;;1.57;;
4057;SDS011;2044;48.692;9.020;2023-04-24T14:28:23;1.30;;;1.00;;
4057;SDS011;2044;48.692;9.020;2023-04-24T14:30:50;1.50;;;1.40;;
4057;SDS011;2044;48.692;9.020;2023-04-24T14:33:17;1.50;;;1.40;;
4057;SDS011;2044;48.692;9.020;2023-04-24T14:35:44;2.47;;;1.47;;
4057;SDS011;2044;48.692;9.020;2023-04-24T14:38:10;2.10;;;1.30;;
4057;SDS011;2044;48.692;9.020;2023-04-24T14:40:39;2.60;;;1.70;;
4057;SDS011;2044;48.692;9.020;2023-04-24T14:43:06;1.87;;;1.30;;
4057;SDS011;2044;48.692;9.020;2023-04-24T14:45:33;2.17;;;1.40;;
4057;SDS011;2044;48.692;9.020;2023-04-24T14:48:00;1.90;;;1.70;;
4057;SDS011;2044;48.692;9.020;2023-04-24T14:50:26;2.10;;;2.00;;
4057;SDS011;2044;48.692;9.020;2023-04-24T14:52:53;5.30;;;2.50;;
4057;SDS011;2044;48.692;9.020;2023-04-24T14:55:22;2.70;;;2.50;;
4057;SDS011;2044;48.692;9.020;2023-04-24T14:57:50;3.43;;;3.33;;
4057;SDS011;2044;48.692;9.020;2023-04-24T15:00:17;3.87;;;3.67;;
4057;SDS011;2044;48.692;9.020;2023-04-24T15:02:45;2.77;;;2.67;;
4057;SDS011;2044;48.692;9.020;2023-04-24T15:05:12;3.47;;;3.27;;
4057;SDS011;2044;48.692;9.020;2023-04-24T15:07:38;3.20;;;3.10;;
4057;SDS011;2044;48.692;9.020;2023-04-24T15:10:06;2.60;;;2.50;;
4057;SDS011;2044;48.692;9.020;2023-04-24T15:12:34;2.90;;;2.80;;
4057;SDS011;2044;48.692;9.020;2023-04-24T15:15:02;3.03;;;2.83;;
4057;SDS011;2044;48.692;9.020;2023-04-24T15:17:29;2.97;;;2.77;;